sensor_id;sensor_type;location;lat;lon;timestamp;P1;durP1;ratioP1;P2;durP2;ratioP2
43664;SDS011;29263;48.172;11.484;2022-12-13T00:00:10;10.57;;;5.73;;
43664;SDS011;29263;48.172;11.484;2022-12-13T00:02:40;8.48;;;4.82;;
43664;SDS011;29263;48.172;11.484;2022-12-13T00:05:06;9.83;;;5.53;;
43664;SDS011;29263;48.172;11.484;2022-12-13T00:07:33;7.73;;;4.93;;
43664;SDS011;29263;48.172;11.484;2022-12-13T00:09:59;10.00;;;4.60;;
43664;SDS011;29263;48.172;11.484;2022-12-13T00:12:24;15.47;;;5.17;;
43664;SDS011;29263;48.172;11.484;2022-12-13T00:14:50;9.40;;;5.13;;
43664;SDS011;29263;48.172;11.484;2022-12-13T00:17:16;12.70;;;5.23;;
43664;SDS011;29263;48.172;11.484;2022-12-13T00:19:41;9.07;;;5.00;;
43664;SDS011;29263;48.172;11.484;2022-12-13T00:22:07;7.50;;;4.83;;
43664;SDS011;29263;48.172;11.484;2022-12-13T00:24:33;8.73;;;5.13;;
43664;SDS011;29263;48.172;11.484;2022-12-13T00:26:58;8.97;;;4.97;;
43664;SDS011;29263;48.172;11.484;2022-12-13T00:29:24;10.00;;;5.50;;
43664;SDS011;29263;48.172;11.484;2022-12-13T00:31:50;8.80;;;4.83;;
43664;SDS011;29263;48.172;11.484;2022-12-13T00:34:15;9.87;;;4.67;;
43664;SDS011;29263;48.172;11.484;2022-12-13T00:36:42;8.87;;;4.60;;
43664;SDS011;29263;48.172;11.484;2022-12-13T00:39:08;11.60;;;5.00;;
43664;SDS011;29263;48.172;11.484;2022-12-13T00:41:36;8.97;;;4.67;;
43664;SDS011;29263;48.172;11.484;2022-12-13T00:44:02;8.87;;;4.53;;
43664;SDS011;29263;48.172;11.484;2022-12-13T00:46:28;8.20;;;4.83;;
43664;SDS011;29263;48.172;11.484;2022-12-13T00:48:56;7.73;;;4.30;;
43664;SDS011;29263;48.172;11.484;2022-12-13T00:51:24;9.07;;;4.82;;
43664;SDS011;29263;48.172;11.484;2022-12-13T00:53:50;8.50;;;5.33;;
43664;SDS011;29263;48.172;11.484;2022-12-13T00:56:18;8.87;;;5.17;;
43664;SDS011;29263;48.172;11.484;2022-12-13T00:58:45;9.18;;;5.15;;
43664;SDS011;29263;48.172;11.484;2022-12-13T01:01:14;9.10;;;4.90;;
43664;SDS011;29263;48.172;11.484;2022-12-13T01:03:41;10.97;;;5.00;;
43664;SDS011;29263;48.172;11.484;2022-12-13T01:06:08;7.20;;;3.93;;
43664;SDS011;29263;48.172;11.484;2022-12-13T01:08:34;8.40;;;4.90;;
43664;SDS011;29263;48.172;11.484;2022-12-13T01:10:59;6.77;;;3.97;;
43664;SDS011;29263;48.172;11.484;2022-12-13T01:13:25;7.80;;;4.80;;
43664;SDS011;29263;48.172;11.484;2022-12-13T01:15:51;9.40;;;5.03;;
43664;SDS011;29263;48.172;11.484;2022-12-13T01:18:16;8.77;;;4.57;;
43664;SDS011;29263;48.172;11.484;2022-12-13T01:20:42;8.27;;;4.57;;
43664;SDS011;29263;48.172;11.484;2022-12-13T01:23:21;7.45;;;4.85;;
43664;SDS011;29263;48.172;11.484;2022-12-13T01:25:46;8.13;;;4.77;;
43664;SDS011;29263;48.172;11.484;2022-12-13T01:28:12;8.37;;;4.80;;
43664;SDS011;29263;48.172;11.484;2022-12-13T01:30:37;9.57;;;5.13;;
43664;SDS011;29263;48.172;11.484;2022-12-13T01:33:03;9.93;;;5.40;;
43664;SDS011;29263;48.172;11.484;2022-12-13T01:35:29;8.97;;;5.10;;
43664;SDS011;29263;48.172;11.484;2022-12-13T01:37:57;7.60;;;5.10;;
43664;SDS011;29263;48.172;11.484;2022-12-13T01:40:23;7.90;;;4.47;;
43664;SDS011;29263;48.172;11.484;2022-12-13T01:42:48;8.50;;;5.27;;
43664;SDS011;29263;48.172;11.484;2022-12-13T01:45:20;11.40;;;5.47;;
43664;SDS011;29263;48.172;11.484;2022-12-13T01:47:50;6.93;;;4.37;;
43664;SDS011;29263;48.172;11.484;2022-12-13T01:50:30;9.67;;;4.73;;
43664;SDS011;29263;48.172;11.484;2022-12-13T01:52:58;13.33;;;5.20;;
43664;SDS011;29263;48.172;11.484;2022-12-13T01:55:27;10.73;;;4.90;;
43664;SDS011;29263;48.172;11.484;2022-12-13T01:57:56;8.40;;;5.07;;
43664;SDS011;29263;48.172;11.484;2022-12-13T02:00:25;10.03;;;5.70;;
43664;SDS011;29263;48.172;11.484;2022-12-13T02:02:51;9.63;;;5.27;;
43664;SDS011;29263;48.172;11.484;2022-12-13T02:07:57;8.93;;;4.63;;
43664;SDS011;29263;48.172;11.484;2022-12-13T02:10:25;8.40;;;5.23;;
43664;SDS011;29263;48.172;11.484;2022-12-13T02:12:52;10.50;;;4.90;;
43664;SDS011;29263;48.172;11.484;2022-12-13T02:15:18;8.80;;;4.87;;
43664;SDS011;29263;48.172;11.484;2022-12-13T02:25:54;8.27;;;4.67;;
43664;SDS011;29263;48.172;11.484;2022-12-13T02:31:41;10.00;;;5.30;;
43664;SDS011;29263;48.172;11.484;2022-12-13T02:34:23;9.47;;;4.87;;
43664;SDS011;29263;48.172;11.484;2022-12-13T02:37:19;8.23;;;5.00;;
43664;SDS011;29263;48.172;11.484;2022-12-13T02:39:56;10.73;;;5.57;;
43664;SDS011;29263;48.172;11.484;2022-12-13T02:45:14;9.53;;;5.27;;
43664;SDS011;29263;48.172;11.484;2022-12-13T02:47:44;9.30;;;5.20;;
43664;SDS011;29263;48.172;11.484;2022-12-13T02:50:12;10.63;;;5.40;;
43664;SDS011;29263;48.172;11.484;2022-12-13T02:52:38;11.17;;;6.03;;
43664;SDS011;29263;48.172;11.484;2022-12-13T02:55:07;8.63;;;5.40;;
43664;SDS011;29263;48.172;11.484;2022-12-13T02:57:37;14.43;;;6.83;;
43664;SDS011;29263;48.172;11.484;2022-12-13T03:02:41;11.53;;;6.20;;
43664;SDS011;29263;48.172;11.484;2022-12-13T03:05:35;11.50;;;6.00;;
43664;SDS011;29263;48.172;11.484;2022-12-13T03:11:12;10.03;;;5.77;;
43664;SDS011;29263;48.172;11.484;2022-12-13T03:13:56;9.23;;;5.40;;
43664;SDS011;29263;48.172;11.484;2022-12-13T03:16:32;11.07;;;6.90;;
43664;SDS011;29263;48.172;11.484;2022-12-13T03:19:03;9.87;;;6.00;;
43664;SDS011;29263;48.172;11.484;2022-12-13T03:21:48;10.83;;;6.23;;
43664;SDS011;29263;48.172;11.484;2022-12-13T03:24:17;10.97;;;6.40;;
43664;SDS011;29263;48.172;11.484;2022-12-13T03:26:45;10.30;;;6.13;;
43664;SDS011;29263;48.172;11.484;2022-12-13T03:29:12;11.53;;;6.60;;
43664;SDS011;29263;48.172;11.484;2022-12-13T03:31:38;11.17;;;5.60;;
43664;SDS011;29263;48.172;11.484;2022-12-13T03:34:04;11.60;;;6.70;;
43664;SDS011;29263;48.172;11.484;2022-12-13T03:36:30;9.90;;;5.70;;
43664;SDS011;29263;48.172;11.484;2022-12-13T03:38:56;10.77;;;5.67;;
43664;SDS011;29263;48.172;11.484;2022-12-13T03:41:23;10.83;;;5.93;;
43664;SDS011;29263;48.172;11.484;2022-12-13T03:43:58;12.00;;;6.47;;
43664;SDS011;29263;48.172;11.484;2022-12-13T03:46:24;11.87;;;6.20;;
43664;SDS011;29263;48.172;11.484;2022-12-13T03:48:50;10.37;;;5.90;;
43664;SDS011;29263;48.172;11.484;2022-12-13T03:51:15;13.37;;;6.10;;
43664;SDS011;29263;48.172;11.484;2022-12-13T03:53:41;10.00;;;6.07;;
43664;SDS011;29263;48.172;11.484;2022-12-13T03:56:08;14.10;;;6.63;;
43664;SDS011;29263;48.172;11.484;2022-12-13T03:58:34;10.27;;;6.27;;
43664;SDS011;29263;48.172;11.484;2022-12-13T04:00:59;9.40;;;5.70;;
43664;SDS011;29263;48.172;11.484;2022-12-13T04:03:25;11.03;;;5.90;;
43664;SDS011;29263;48.172;11.484;2022-12-13T04:05:51;11.50;;;6.07;;
43664;SDS011;29263;48.172;11.484;2022-12-13T04:08:16;10.07;;;6.43;;
43664;SDS011;29263;48.172;11.484;2022-12-13T04:10:42;11.53;;;5.90;;
43664;SDS011;29263;48.172;11.484;2022-12-13T04:13:08;10.20;;;6.37;;
43664;SDS011;29263;48.172;11.484;2022-12-13T04:15:53;11.03;;;5.87;;
43664;SDS011;29263;48.172;11.484;2022-12-13T04:18:19;8.60;;;5.50;;
43664;SDS011;29263;48.172;11.484;2022-12-13T04:20:45;11.43;;;5.80;;
43664;SDS011;29263;48.172;11.484;2022-12-13T04:23:11;10.30;;;5.47;;
43664;SDS011;29263;48.172;11.484;2022-12-13T04:25:37;11.40;;;6.30;;
43664;SDS011;29263;48.172;11.484;2022-12-13T04:28:04;10.17;;;5.27;;
43664;SDS011;29263;48.172;11.484;2022-12-13T04:30:30;11.50;;;5.93;;
43664;SDS011;29263;48.172;11.484;2022-12-13T04:32:56;8.83;;;5.13;;
43664;SDS011;29263;48.172;11.484;2022-12-13T04:35:22;11.33;;;5.73;;
43664;SDS011;29263;48.172;11.484;2022-12-13T04:37:47;10.80;;;5.63;;
43664;SDS011;29263;48.172;11.484;2022-12-13T04:40:13;11.33;;;6.43;;
43664;SDS011;29263;48.172;11.484;2022-12-13T04:42:38;11.53;;;6.07;;
43664;SDS011;29263;48.172;11.484;2022-12-13T04:45:04;8.60;;;6.03;;
43664;SDS011;29263;48.172;11.484;2022-12-13T04:47:30;9.20;;;5.53;;
43664;SDS011;29263;48.172;11.484;2022-12-13T04:49:56;10.03;;;5.63;;
43664;SDS011;29263;48.172;11.484;2022-12-13T04:52:21;9.17;;;5.93;;
43664;SDS011;29263;48.172;11.484;2022-12-13T04:54:47;9.63;;;5.83;;
43664;SDS011;29263;48.172;11.484;2022-12-13T04:57:13;8.23;;;5.13;;
43664;SDS011;29263;48.172;11.484;2022-12-13T04:59:39;13.27;;;5.93;;
43664;SDS011;29263;48.172;11.484;2022-12-13T05:02:05;15.47;;;7.20;;
43664;SDS011;29263;48.172;11.484;2022-12-13T05:04:31;11.83;;;6.83;;
43664;SDS011;29263;48.172;11.484;2022-12-13T05:06:57;14.87;;;7.93;;
43664;SDS011;29263;48.172;11.484;2022-12-13T05:09:23;12.20;;;6.40;;
43664;SDS011;29263;48.172;11.484;2022-12-13T05:11:48;13.70;;;7.60;;
43664;SDS011;29263;48.172;11.484;2022-12-13T05:14:14;11.23;;;6.57;;
43664;SDS011;29263;48.172;11.484;2022-12-13T05:16:40;12.20;;;6.43;;
43664;SDS011;29263;48.172;11.484;2022-12-13T05:19:05;12.53;;;6.33;;
43664;SDS011;29263;48.172;11.484;2022-12-13T05:21:31;11.43;;;6.10;;
43664;SDS011;29263;48.172;11.484;2022-12-13T05:23:59;10.80;;;6.77;;
43664;SDS011;29263;48.172;11.484;2022-12-13T05:26:26;12.17;;;6.60;;
43664;SDS011;29263;48.172;11.484;2022-12-13T05:28:53;14.33;;;7.00;;
43664;SDS011;29263;48.172;11.484;2022-12-13T05:31:22;13.57;;;6.90;;
43664;SDS011;29263;48.172;11.484;2022-12-13T05:33:48;13.80;;;6.87;;
43664;SDS011;29263;48.172;11.484;2022-12-13T05:36:13;12.17;;;6.37;;
43664;SDS011;29263;48.172;11.484;2022-12-13T05:38:39;10.50;;;6.47;;
43664;SDS011;29263;48.172;11.484;2022-12-13T05:41:05;12.63;;;6.53;;
43664;SDS011;29263;48.172;11.484;2022-12-13T05:43:31;10.40;;;6.60;;
43664;SDS011;29263;48.172;11.484;2022-12-13T05:45:57;12.40;;;6.43;;
43664;SDS011;29263;48.172;11.484;2022-12-13T05:48:22;12.43;;;6.57;;
43664;SDS011;29263;48.172;11.484;2022-12-13T05:50:48;12.93;;;7.17;;
43664;SDS011;29263;48.172;11.484;2022-12-13T05:53:14;11.80;;;7.50;;
43664;SDS011;29263;48.172;11.484;2022-12-13T05:55:40;12.10;;;7.17;;
43664;SDS011;29263;48.172;11.484;2022-12-13T05:58:06;11.70;;;6.33;;
43664;SDS011;29263;48.172;11.484;2022-12-13T06:00:31;11.20;;;6.40;;
43664;SDS011;29263;48.172;11.484;2022-12-13T06:02:57;13.23;;;7.53;;
43664;SDS011;29263;48.172;11.484;2022-12-13T06:05:23;14.10;;;6.87;;
43664;SDS011;29263;48.172;11.484;2022-12-13T06:07:49;14.00;;;6.53;;
43664;SDS011;29263;48.172;11.484;2022-12-13T06:10:15;15.40;;;6.57;;
43664;SDS011;29263;48.172;11.484;2022-12-13T06:12:40;14.27;;;7.53;;
43664;SDS011;29263;48.172;11.484;2022-12-13T06:15:06;16.57;;;7.13;;
43664;SDS011;29263;48.172;11.484;2022-12-13T06:17:32;15.30;;;7.17;;
43664;SDS011;29263;48.172;11.484;2022-12-13T06:19:59;14.13;;;8.07;;
43664;SDS011;29263;48.172;11.484;2022-12-13T06:22:25;14.97;;;7.57;;
43664;SDS011;29263;48.172;11.484;2022-12-13T06:24:51;16.27;;;8.30;;
43664;SDS011;29263;48.172;11.484;2022-12-13T06:27:17;16.83;;;7.40;;
43664;SDS011;29263;48.172;11.484;2022-12-13T06:29:43;14.00;;;7.97;;
43664;SDS011;29263;48.172;11.484;2022-12-13T06:32:08;13.33;;;7.30;;
43664;SDS011;29263;48.172;11.484;2022-12-13T06:34:34;14.07;;;7.93;;
43664;SDS011;29263;48.172;11.484;2022-12-13T06:37:04;17.10;;;8.37;;
43664;SDS011;29263;48.172;11.484;2022-12-13T06:39:32;17.67;;;8.03;;
43664;SDS011;29263;48.172;11.484;2022-12-13T06:41:58;11.83;;;7.03;;
43664;SDS011;29263;48.172;11.484;2022-12-13T06:44:25;13.83;;;8.07;;
43664;SDS011;29263;48.172;11.484;2022-12-13T06:46:50;12.87;;;7.23;;
43664;SDS011;29263;48.172;11.484;2022-12-13T06:49:16;11.73;;;6.50;;
43664;SDS011;29263;48.172;11.484;2022-12-13T06:51:42;16.23;;;6.60;;
43664;SDS011;29263;48.172;11.484;2022-12-13T06:54:07;12.23;;;5.93;;
43664;SDS011;29263;48.172;11.484;2022-12-13T06:56:33;17.10;;;6.97;;
43664;SDS011;29263;48.172;11.484;2022-12-13T06:58:58;12.40;;;7.23;;
43664;SDS011;29263;48.172;11.484;2022-12-13T07:01:24;12.03;;;6.57;;
43664;SDS011;29263;48.172;11.484;2022-12-13T07:03:50;13.63;;;7.20;;
43664;SDS011;29263;48.172;11.484;2022-12-13T07:06:19;13.20;;;7.07;;
43664;SDS011;29263;48.172;11.484;2022-12-13T07:08:53;14.10;;;7.97;;
43664;SDS011;29263;48.172;11.484;2022-12-13T07:11:21;13.50;;;7.57;;
43664;SDS011;29263;48.172;11.484;2022-12-13T07:13:49;14.10;;;7.43;;
43664;SDS011;29263;48.172;11.484;2022-12-13T07:16:15;17.30;;;8.13;;
43664;SDS011;29263;48.172;11.484;2022-12-13T07:18:41;13.17;;;6.83;;
43664;SDS011;29263;48.172;11.484;2022-12-13T07:21:07;17.23;;;7.27;;
43664;SDS011;29263;48.172;11.484;2022-12-13T07:23:35;14.53;;;8.37;;
43664;SDS011;29263;48.172;11.484;2022-12-13T07:26:01;11.93;;;7.37;;
43664;SDS011;29263;48.172;11.484;2022-12-13T07:28:27;15.77;;;8.33;;
43664;SDS011;29263;48.172;11.484;2022-12-13T07:30:58;16.17;;;8.33;;
43664;SDS011;29263;48.172;11.484;2022-12-13T07:33:26;12.63;;;7.10;;
43664;SDS011;29263;48.172;11.484;2022-12-13T07:38:52;13.43;;;6.87;;
43664;SDS011;29263;48.172;11.484;2022-12-13T07:41:19;16.00;;;7.27;;
43664;SDS011;29263;48.172;11.484;2022-12-13T07:43:45;14.57;;;7.17;;
43664;SDS011;29263;48.172;11.484;2022-12-13T07:46:10;17.50;;;7.53;;
43664;SDS011;29263;48.172;11.484;2022-12-13T07:48:36;19.50;;;8.47;;
43664;SDS011;29263;48.172;11.484;2022-12-13T07:51:03;15.93;;;8.50;;
43664;SDS011;29263;48.172;11.484;2022-12-13T07:53:31;16.90;;;8.40;;
43664;SDS011;29263;48.172;11.484;2022-12-13T07:55:59;16.80;;;9.30;;
43664;SDS011;29263;48.172;11.484;2022-12-13T08:00:57;15.77;;;8.87;;
43664;SDS011;29263;48.172;11.484;2022-12-13T08:03:24;17.20;;;9.27;;
43664;SDS011;29263;48.172;11.484;2022-12-13T08:05:57;19.53;;;8.40;;
43664;SDS011;29263;48.172;11.484;2022-12-13T08:08:30;18.53;;;9.53;;
43664;SDS011;29263;48.172;11.484;2022-12-13T08:10:59;19.53;;;8.63;;
43664;SDS011;29263;48.172;11.484;2022-12-13T08:13:32;18.93;;;8.30;;
43664;SDS011;29263;48.172;11.484;2022-12-13T08:15:59;19.23;;;9.73;;
43664;SDS011;29263;48.172;11.484;2022-12-13T08:18:26;17.70;;;8.80;;
43664;SDS011;29263;48.172;11.484;2022-12-13T08:20:56;20.07;;;9.67;;
43664;SDS011;29263;48.172;11.484;2022-12-13T08:23:25;19.90;;;9.10;;
43664;SDS011;29263;48.172;11.484;2022-12-13T08:25:52;17.37;;;8.27;;
43664;SDS011;29263;48.172;11.484;2022-12-13T08:28:18;20.17;;;8.43;;
43664;SDS011;29263;48.172;11.484;2022-12-13T08:30:44;17.40;;;8.97;;
43664;SDS011;29263;48.172;11.484;2022-12-13T08:33:10;16.77;;;8.80;;
43664;SDS011;29263;48.172;11.484;2022-12-13T08:35:35;19.43;;;9.03;;
43664;SDS011;29263;48.172;11.484;2022-12-13T08:38:01;20.00;;;9.50;;
43664;SDS011;29263;48.172;11.484;2022-12-13T08:40:27;19.43;;;8.67;;
43664;SDS011;29263;48.172;11.484;2022-12-13T08:42:55;19.43;;;9.57;;
43664;SDS011;29263;48.172;11.484;2022-12-13T08:45:21;18.87;;;9.30;;
43664;SDS011;29263;48.172;11.484;2022-12-13T08:47:50;17.63;;;9.17;;
43664;SDS011;29263;48.172;11.484;2022-12-13T08:50:16;17.63;;;8.07;;
43664;SDS011;29263;48.172;11.484;2022-12-13T08:52:42;17.63;;;8.63;;
43664;SDS011;29263;48.172;11.484;2022-12-13T08:55:09;21.00;;;8.87;;
43664;SDS011;29263;48.172;11.484;2022-12-13T08:57:39;16.57;;;8.73;;
43664;SDS011;29263;48.172;11.484;2022-12-13T09:00:07;14.60;;;7.77;;
43664;SDS011;29263;48.172;11.484;2022-12-13T09:02:35;15.63;;;7.13;;
43664;SDS011;29263;48.172;11.484;2022-12-13T09:05:01;21.83;;;10.00;;
43664;SDS011;29263;48.172;11.484;2022-12-13T09:07:27;14.40;;;7.37;;
43664;SDS011;29263;48.172;11.484;2022-12-13T09:09:53;14.13;;;7.73;;
43664;SDS011;29263;48.172;11.484;2022-12-13T09:12:19;14.80;;;8.20;;
43664;SDS011;29263;48.172;11.484;2022-12-13T09:14:45;15.80;;;7.17;;
43664;SDS011;29263;48.172;11.484;2022-12-13T09:17:11;11.97;;;6.07;;
43664;SDS011;29263;48.172;11.484;2022-12-13T09:19:39;15.05;;;6.68;;
43664;SDS011;29263;48.172;11.484;2022-12-13T09:22:05;15.13;;;7.83;;
43664;SDS011;29263;48.172;11.484;2022-12-13T09:24:31;14.60;;;7.43;;
43664;SDS011;29263;48.172;11.484;2022-12-13T09:26:57;14.10;;;7.27;;
43664;SDS011;29263;48.172;11.484;2022-12-13T09:29:22;12.43;;;6.90;;
43664;SDS011;29263;48.172;11.484;2022-12-13T09:31:48;13.37;;;6.97;;
43664;SDS011;29263;48.172;11.484;2022-12-13T09:34:14;12.53;;;6.63;;
43664;SDS011;29263;48.172;11.484;2022-12-13T09:36:39;15.67;;;7.77;;
43664;SDS011;29263;48.172;11.484;2022-12-13T09:39:06;15.33;;;7.23;;
43664;SDS011;29263;48.172;11.484;2022-12-13T09:41:35;11.70;;;6.07;;
43664;SDS011;29263;48.172;11.484;2022-12-13T09:44:06;11.27;;;6.70;;
43664;SDS011;29263;48.172;11.484;2022-12-13T09:46:49;13.00;;;6.80;;
43664;SDS011;29263;48.172;11.484;2022-12-13T09:49:23;17.90;;;6.20;;
43664;SDS011;29263;48.172;11.484;2022-12-13T09:52:02;12.73;;;5.93;;
43664;SDS011;29263;48.172;11.484;2022-12-13T09:54:30;12.00;;;6.90;;
43664;SDS011;29263;48.172;11.484;2022-12-13T09:56:57;13.53;;;6.70;;
43664;SDS011;29263;48.172;11.484;2022-12-13T09:59:25;13.73;;;7.10;;
43664;SDS011;29263;48.172;11.484;2022-12-13T10:01:54;11.23;;;6.03;;
43664;SDS011;29263;48.172;11.484;2022-12-13T10:04:21;12.10;;;6.67;;
43664;SDS011;29263;48.172;11.484;2022-12-13T10:06:51;12.93;;;6.80;;
43664;SDS011;29263;48.172;11.484;2022-12-13T10:09:17;15.17;;;6.90;;
43664;SDS011;29263;48.172;11.484;2022-12-13T10:11:51;16.83;;;8.43;;
43664;SDS011;29263;48.172;11.484;2022-12-13T10:14:20;13.97;;;7.20;;
43664;SDS011;29263;48.172;11.484;2022-12-13T10:16:51;12.60;;;7.00;;
43664;SDS011;29263;48.172;11.484;2022-12-13T10:19:40;12.47;;;7.00;;
43664;SDS011;29263;48.172;11.484;2022-12-13T10:22:13;13.00;;;7.20;;
43664;SDS011;29263;48.172;11.484;2022-12-13T10:24:53;15.87;;;6.97;;
43664;SDS011;29263;48.172;11.484;2022-12-13T10:27:20;15.25;;;7.85;;
43664;SDS011;29263;48.172;11.484;2022-12-13T10:30:08;14.50;;;7.87;;
43664;SDS011;29263;48.172;11.484;2022-12-13T10:35:29;15.47;;;7.17;;
43664;SDS011;29263;48.172;11.484;2022-12-13T10:37:59;15.73;;;7.60;;
43664;SDS011;29263;48.172;11.484;2022-12-13T10:43:23;16.10;;;7.73;;
43664;SDS011;29263;48.172;11.484;2022-12-13T10:51:07;12.10;;;6.63;;
43664;SDS011;29263;48.172;11.484;2022-12-13T10:53:41;14.40;;;7.13;;
43664;SDS011;29263;48.172;11.484;2022-12-13T10:56:19;13.40;;;7.17;;
43664;SDS011;29263;48.172;11.484;2022-12-13T10:58:47;15.77;;;7.30;;
43664;SDS011;29263;48.172;11.484;2022-12-13T11:04:00;13.47;;;7.13;;
43664;SDS011;29263;48.172;11.484;2022-12-13T11:06:28;13.17;;;6.67;;
43664;SDS011;29263;48.172;11.484;2022-12-13T11:12:12;9.80;;;5.30;;
43664;SDS011;29263;48.172;11.484;2022-12-13T11:15:02;11.53;;;6.27;;
43664;SDS011;29263;48.172;11.484;2022-12-13T11:17:31;11.43;;;6.23;;
43664;SDS011;29263;48.172;11.484;2022-12-13T11:20:04;10.07;;;6.87;;
43664;SDS011;29263;48.172;11.484;2022-12-13T11:22:33;13.23;;;7.65;;
43664;SDS011;29263;48.172;11.484;2022-12-13T11:33:12;16.20;;;8.57;;
43664;SDS011;29263;48.172;11.484;2022-12-13T11:38:35;13.40;;;7.83;;
43664;SDS011;29263;48.172;11.484;2022-12-13T11:44:05;18.10;;;8.52;;
43664;SDS011;29263;48.172;11.484;2022-12-13T11:47:05;16.77;;;7.30;;
43664;SDS011;29263;48.172;11.484;2022-12-13T11:49:34;12.03;;;7.50;;
43664;SDS011;29263;48.172;11.484;2022-12-13T11:52:13;14.63;;;8.00;;
43664;SDS011;29263;48.172;11.484;2022-12-13T12:03:01;14.77;;;7.97;;
43664;SDS011;29263;48.172;11.484;2022-12-13T12:05:48;17.60;;;8.93;;
43664;SDS011;29263;48.172;11.484;2022-12-13T12:08:32;16.07;;;8.53;;
43664;SDS011;29263;48.172;11.484;2022-12-13T12:11:11;15.90;;;8.00;;
43664;SDS011;29263;48.172;11.484;2022-12-13T12:14:03;16.57;;;8.97;;
43664;SDS011;29263;48.172;11.484;2022-12-13T12:16:35;14.37;;;8.13;;
43664;SDS011;29263;48.172;11.484;2022-12-13T12:19:10;20.57;;;9.13;;
43664;SDS011;29263;48.172;11.484;2022-12-13T12:21:49;15.30;;;8.27;;
43664;SDS011;29263;48.172;11.484;2022-12-13T12:24:36;14.52;;;8.63;;
43664;SDS011;29263;48.172;11.484;2022-12-13T12:27:21;13.77;;;7.43;;
43664;SDS011;29263;48.172;11.484;2022-12-13T12:44:37;14.43;;;7.40;;
43664;SDS011;29263;48.172;11.484;2022-12-13T12:47:26;13.03;;;7.87;;
43664;SDS011;29263;48.172;11.484;2022-12-13T12:50:16;18.87;;;9.97;;
43664;SDS011;29263;48.172;11.484;2022-12-13T13:00:59;16.93;;;8.00;;
43664;SDS011;29263;48.172;11.484;2022-12-13T13:03:30;13.60;;;7.87;;
43664;SDS011;29263;48.172;11.484;2022-12-13T13:06:21;17.57;;;8.87;;
43664;SDS011;29263;48.172;11.484;2022-12-13T13:11:18;17.83;;;8.97;;
43664;SDS011;29263;48.172;11.484;2022-12-13T13:13:45;15.37;;;7.63;;
43664;SDS011;29263;48.172;11.484;2022-12-13T13:16:46;14.95;;;7.60;;
43664;SDS011;29263;48.172;11.484;2022-12-13T13:21:43;12.87;;;7.33;;
43664;SDS011;29263;48.172;11.484;2022-12-13T13:24:24;16.17;;;8.13;;
43664;SDS011;29263;48.172;11.484;2022-12-13T13:27:19;17.13;;;8.50;;
43664;SDS011;29263;48.172;11.484;2022-12-13T13:29:40;19.50;;;8.25;;
43664;SDS011;29263;48.172;11.484;2022-12-13T13:34:40;14.93;;;7.83;;
43664;SDS011;29263;48.172;11.484;2022-12-13T13:42:18;15.87;;;8.00;;
43664;SDS011;29263;48.172;11.484;2022-12-13T13:47:15;18.17;;;9.00;;
43664;SDS011;29263;48.172;11.484;2022-12-13T14:04:08;19.60;;;8.43;;
43664;SDS011;29263;48.172;11.484;2022-12-13T14:22:26;17.80;;;7.63;;
43664;SDS011;29263;48.172;11.484;2022-12-13T14:30:01;15.00;;;7.83;;
43664;SDS011;29263;48.172;11.484;2022-12-13T14:32:29;14.63;;;7.53;;
43664;SDS011;29263;48.172;11.484;2022-12-13T14:34:59;15.27;;;7.70;;
43664;SDS011;29263;48.172;11.484;2022-12-13T14:39:55;14.30;;;7.67;;
43664;SDS011;29263;48.172;11.484;2022-12-13T14:42:29;16.00;;;8.40;;
43664;SDS011;29263;48.172;11.484;2022-12-13T14:45:20;15.97;;;8.20;;
43664;SDS011;29263;48.172;11.484;2022-12-13T14:50:16;17.27;;;7.80;;
43664;SDS011;29263;48.172;11.484;2022-12-13T14:52:43;17.23;;;8.20;;
43664;SDS011;29263;48.172;11.484;2022-12-13T14:55:29;18.47;;;7.77;;
43664;SDS011;29263;48.172;11.484;2022-12-13T14:57:58;14.47;;;7.33;;
43664;SDS011;29263;48.172;11.484;2022-12-13T15:00:26;17.47;;;8.70;;
43664;SDS011;29263;48.172;11.484;2022-12-13T15:02:58;18.53;;;7.83;;
43664;SDS011;29263;48.172;11.484;2022-12-13T15:05:29;16.40;;;7.47;;
43664;SDS011;29263;48.172;11.484;2022-12-13T15:07:58;16.37;;;8.50;;
43664;SDS011;29263;48.172;11.484;2022-12-13T15:10:32;16.67;;;8.53;;
43664;SDS011;29263;48.172;11.484;2022-12-13T15:13:06;20.93;;;8.80;;
43664;SDS011;29263;48.172;11.484;2022-12-13T15:15:51;17.83;;;7.67;;
43664;SDS011;29263;48.172;11.484;2022-12-13T15:18:19;16.20;;;7.67;;
43664;SDS011;29263;48.172;11.484;2022-12-13T15:20:47;13.75;;;7.93;;
43664;SDS011;29263;48.172;11.484;2022-12-13T15:23:19;16.47;;;8.40;;
43664;SDS011;29263;48.172;11.484;2022-12-13T15:26:02;14.27;;;7.50;;
43664;SDS011;29263;48.172;11.484;2022-12-13T15:28:42;14.10;;;7.83;;
43664;SDS011;29263;48.172;11.484;2022-12-13T15:31:10;18.25;;;8.43;;
43664;SDS011;29263;48.172;11.484;2022-12-13T15:33:38;14.03;;;8.47;;
43664;SDS011;29263;48.172;11.484;2022-12-13T15:39:02;18.77;;;8.67;;
43664;SDS011;29263;48.172;11.484;2022-12-13T15:41:28;19.63;;;8.47;;
43664;SDS011;29263;48.172;11.484;2022-12-13T15:44:02;15.53;;;8.30;;
43664;SDS011;29263;48.172;11.484;2022-12-13T15:46:32;16.20;;;8.63;;
43664;SDS011;29263;48.172;11.484;2022-12-13T15:49:02;18.33;;;8.50;;
43664;SDS011;29263;48.172;11.484;2022-12-13T15:51:29;18.63;;;7.53;;
43664;SDS011;29263;48.172;11.484;2022-12-13T15:59:39;16.10;;;7.90;;
43664;SDS011;29263;48.172;11.484;2022-12-13T16:02:20;16.00;;;8.07;;
43664;SDS011;29263;48.172;11.484;2022-12-13T16:04:48;18.73;;;8.40;;
43664;SDS011;29263;48.172;11.484;2022-12-13T16:07:21;13.77;;;7.33;;
43664;SDS011;29263;48.172;11.484;2022-12-13T16:09:47;16.70;;;8.73;;
43664;SDS011;29263;48.172;11.484;2022-12-13T16:12:23;16.65;;;7.60;;
43664;SDS011;29263;48.172;11.484;2022-12-13T16:15:11;14.80;;;7.80;;
43664;SDS011;29263;48.172;11.484;2022-12-13T16:17:39;15.03;;;8.10;;
43664;SDS011;29263;48.172;11.484;2022-12-13T16:20:12;17.47;;;8.77;;
43664;SDS011;29263;48.172;11.484;2022-12-13T16:22:39;14.23;;;8.30;;
43664;SDS011;29263;48.172;11.484;2022-12-13T16:25:07;17.07;;;8.80;;
43664;SDS011;29263;48.172;11.484;2022-12-13T16:27:37;18.20;;;9.90;;
43664;SDS011;29263;48.172;11.484;2022-12-13T16:32:51;14.23;;;7.83;;
43664;SDS011;29263;48.172;11.484;2022-12-13T16:35:17;17.57;;;9.70;;
43664;SDS011;29263;48.172;11.484;2022-12-13T16:37:44;17.73;;;9.93;;
43664;SDS011;29263;48.172;11.484;2022-12-13T16:40:26;16.87;;;8.53;;
43664;SDS011;29263;48.172;11.484;2022-12-13T16:42:58;16.83;;;9.80;;
43664;SDS011;29263;48.172;11.484;2022-12-13T16:45:37;17.27;;;9.07;;
43664;SDS011;29263;48.172;11.484;2022-12-13T16:48:05;17.43;;;8.27;;
43664;SDS011;29263;48.172;11.484;2022-12-13T16:50:31;16.93;;;8.90;;
43664;SDS011;29263;48.172;11.484;2022-12-13T16:52:57;16.90;;;9.70;;
43664;SDS011;29263;48.172;11.484;2022-12-13T16:55:23;21.03;;;9.13;;
43664;SDS011;29263;48.172;11.484;2022-12-13T16:57:58;16.10;;;8.90;;
43664;SDS011;29263;48.172;11.484;2022-12-13T17:00:25;16.13;;;8.23;;
43664;SDS011;29263;48.172;11.484;2022-12-13T17:02:53;16.70;;;8.77;;
43664;SDS011;29263;48.172;11.484;2022-12-13T17:05:19;17.80;;;9.13;;
43664;SDS011;29263;48.172;11.484;2022-12-13T17:07:45;18.60;;;9.80;;
43664;SDS011;29263;48.172;11.484;2022-12-13T17:10:11;21.37;;;9.73;;
43664;SDS011;29263;48.172;11.484;2022-12-13T17:12:37;16.80;;;9.33;;